Wednesday, November 22, 2017, 1:00 PM GMT
Back to Local

CYHU, Saint Hubert Airport

Location: , , Canada Lat: 45.517
Local Time: 1:00 PM GMT (13:00 GMT) Lon: -73.417
Time Zone: GMT Elev: 88 ft

Show me the last for .
Show Decoded

2017-11-22 12:44 METAR CYHU 221244Z AUTO 29010KT 9SM -RA FEW011 SCT020 BKN029 OVC036 03/01 A2994
                 RMK SLP140 =
2017-11-22 12:43 METAR CYHU 221243Z AUTO 29010KT 9SM FEW011 SCT020 BKN029 OVC036 03/01 A2994 RMK
                 SLP140 =
2017-11-22 12:00 METAR CYHU 221200Z AUTO 29009KT 9SM -RA FEW023 BKN030 OVC035 03/01 A2991 RMK
                 PCPN 0.8MM PAST HR SLP131 =
2017-11-22 11:42 METAR CYHU 221142Z AUTO 28010KT 9SM -RA SCT019 OVC026 04/02 A2991 RMK SLP131 =
2017-11-22 11:40 METAR CYHU 221140Z AUTO 29009KT 9SM -RA BKN022 OVC028 04/02 A2991 RMK SLP131 =
2017-11-22 11:38 METAR CYHU 221138Z AUTO 29010KT 9SM -RA SCT018 OVC025 04/02 A2991 RMK SLP132 =
2017-11-22 11:00 METAR CYHU 221100Z AUTO 26006KT 7SM -RA OVC016 05/03 A2989 RMK SLP125 =
2017-11-22 10:22 METAR CYHU 221022Z AUTO 29006KT 9SM -RA OVC016 05/03 A2987 RMK SLP118 =
2017-11-22 10:00 METAR CYHU 221000Z AUTO 30005KT 9SM BKN016 OVC029 06/03 A2987 RMK SLP116 =
2017-11-22 09:53 METAR CYHU 220953Z AUTO 28006KT 9SM BKN016 OVC029 06/03 A2986 RMK SLP115 =
2017-11-22 09:00 METAR CYHU 220900Z AUTO 23007KT 9SM OVC037 06/03 A2986 RMK SLP112 =
2017-11-22 08:04 METAR CYHU 220804Z AUTO 20005KT 9SM SCT037 SCT050 SCT065 OVC081 06/02 A2985 RMK
                 SLP111 =
2017-11-22 08:00 METAR CYHU 220800Z AUTO 20004KT 9SM -RA FEW039 SCT055 SCT066 OVC081 06/02 A2985
                 RMK SLP111 =
2017-11-22 07:01 METAR CYHU 220701Z AUTO 23008KT 9SM -RA OVC048 08/00 A2985 RMK SLP111 =
2017-11-22 07:00 METAR CYHU 220700Z AUTO 23007KT 9SM BKN048 OVC100 07/00 A2985 RMK SLP110 =
2017-11-22 06:18 METAR CYHU 220618Z AUTO 21003KT 9SM FEW040 BKN055 OVC087 07/M01 A2984 RMK SLP106
                 =
2017-11-22 06:06 METAR CYHU 220606Z AUTO 21004KT 9SM -RA FEW042 SCT050 BKN060 OVC070 07/M01 A2984
                 RMK SLP106 =
2017-11-22 06:00 METAR CYHU 220600Z AUTO 21005KT 9SM FEW042 BKN055 OVC071 07/M01 A2984 RMK SLP106
                 =
2017-11-22 05:00 METAR CYHU 220500Z AUTO 19006KT 9SM SCT080 OVC120 07/M02 A2983 RMK SLP103 =
2017-11-22 04:00 METAR CYHU 220400Z AUTO 21009KT 9SM OVC075 07/M02 A2981 RMK SLP097 =
2017-11-22 03:00 METAR CYHU 220300Z AUTO 18009KT 9SM BKN180 BKN210 BKN230 07/M03 A2981 RMK SLP096
                 =
2017-11-22 02:00 METAR CYHU 220200Z AUTO 18009KT 9SM FEW075 OVC220 07/M03 A2981 RMK SLP096 =
2017-11-22 01:00 METAR CYHU 220100Z AUTO 20005KT 9SM SCT210 BKN230 06/M03 A2980 RMK SLP094 =
2017-11-22 00:00 METAR CYHU 220000Z AUTO 19008KT 9SM CLR 06/M02 A2978 RMK SLP088 =
2017-11-21 23:00 METAR CYHU 212300Z AUTO 19011G16KT 9SM BKN190 07/M02 A2976 RMK SLP082 =
2017-11-21 22:00 METAR CYHU 212200Z AUTO 19011KT 9SM SCT150 SCT170 BKN200 08/M01 A2975 RMK SLP076
                 =
2017-11-21 21:00 METAR CYHU 212100Z AUTO 17011KT 9SM BKN160 BKN200 08/M01 A2973 RMK SLP070 =
2017-11-21 20:00 METAR CYHU 212000Z AUTO 18009KT 9SM BKN190 08/00 A2973 RMK SLP068 =
2017-11-21 19:00 METAR CYHU 211900Z AUTO 18011G16KT 9SM FEW190 08/00 A2971 RMK SLP065 =
2017-11-21 18:00 METAR CYHU 211800Z AUTO 17011G16KT 9SM CLR 08/M00 A2973 RMK SLP070 =
2017-11-21 17:00 METAR CYHU 211700Z AUTO 17017G24KT 9SM CLR 07/M00 A2974 RMK SLP073 =
2017-11-21 16:00 METAR CYHU 211600Z AUTO 18016G23KT 9SM FEW230 05/M00 A2976 RMK SLP080 =
2017-11-21 15:00 METAR CYHU 211500Z AUTO 18020G28KT 9SM BKN230 05/M00 A2977 RMK SLP083 =
2017-11-21 14:00 METAR CYHU 211400Z AUTO 17018G25KT 9SM BKN240 03/M00 A2979 RMK SLP091 =

Support USWX by starting your Amazon purchase here.